createdAt,value
2019-01-28T00:00:35.743Z,12.00
2019-01-28T00:03:04.792Z,11.80
2019-01-28T00:05:32.897Z,11.07
2019-01-28T00:08:00.479Z,9.93
2019-01-28T00:10:28.528Z,10.33
2019-01-28T00:12:56.288Z,10.10
2019-01-28T00:15:24.252Z,9.93
2019-01-28T00:17:52.453Z,9.77
2019-01-28T00:20:20.501Z,10.43
2019-01-28T00:22:48.159Z,9.90
2019-01-28T00:25:16.395Z,9.87
2019-01-28T00:27:44.093Z,10.23
2019-01-28T00:30:12.117Z,9.50
2019-01-28T00:32:40.139Z,8.43
2019-01-28T00:35:08.220Z,8.97
2019-01-28T00:37:36.380Z,8.67
2019-01-28T00:40:04.909Z,8.13
2019-01-28T00:42:32.450Z,8.07
2019-01-28T00:45:00.318Z,7.43
2019-01-28T00:47:28.180Z,7.37
2019-01-28T00:49:56.119Z,6.93
2019-01-28T00:52:24.077Z,7.97
2019-01-28T00:54:51.885Z,7.30
2019-01-28T00:57:19.809Z,7.27
2019-01-28T00:59:48.229Z,7.40
2019-01-28T01:02:16.252Z,8.13
2019-01-28T01:04:44.270Z,7.40
2019-01-28T01:07:12.442Z,6.90
2019-01-28T01:09:40.316Z,7.50
2019-01-28T01:12:08.124Z,6.83
2019-01-28T01:14:36.026Z,6.60
2019-01-28T01:17:03.887Z,7.13
2019-01-28T01:19:31.719Z,6.27
2019-01-28T01:21:59.922Z,6.03
2019-01-28T01:24:27.667Z,6.53
2019-01-28T01:26:55.526Z,6.87
2019-01-28T01:29:23.463Z,6.37
2019-01-28T01:31:51.456Z,6.10
2019-01-28T01:34:19.360Z,6.60
2019-01-28T01:36:47.288Z,6.77
2019-01-28T01:39:14.891Z,6.53
2019-01-28T01:41:42.609Z,6.30
2019-01-28T01:44:10.268Z,6.13
2019-01-28T01:46:38.340Z,5.73
2019-01-28T01:49:06.207Z,5.70
2019-01-28T01:51:33.980Z,5.33
2019-01-28T01:54:01.610Z,6.67
2019-01-28T01:56:29.393Z,5.90
2019-01-28T01:58:57.087Z,6.63
2019-01-28T02:01:25.229Z,5.90
2019-01-28T02:03:53.254Z,6.10
2019-01-28T02:06:21.057Z,6.57
2019-01-28T02:08:49.471Z,5.93
2019-01-28T02:11:17.409Z,6.20
2019-01-28T02:13:45.307Z,5.83
2019-01-28T02:16:13.134Z,6.20
2019-01-28T02:18:40.834Z,6.73
2019-01-28T02:21:08.907Z,7.67
2019-01-28T02:23:36.939Z,6.90
2019-01-28T02:26:04.724Z,6.73
2019-01-28T02:28:32.894Z,6.97
2019-01-28T02:31:00.948Z,7.63
2019-01-28T02:33:28.703Z,8.17
2019-01-28T02:35:56.639Z,7.47
2019-01-28T02:38:24.148Z,7.33
2019-01-28T02:40:51.797Z,7.40
2019-01-28T02:43:19.780Z,8.30
2019-01-28T02:45:47.571Z,8.07
2019-01-28T02:48:15.797Z,8.03
2019-01-28T02:50:44.325Z,8.70
2019-01-28T02:53:12.293Z,9.03
2019-01-28T02:55:40.120Z,8.57
2019-01-28T02:58:08.076Z,8.80
2019-01-28T03:00:35.860Z,9.07
2019-01-28T03:03:04.015Z,7.87
2019-01-28T03:05:31.670Z,8.53
2019-01-28T03:07:59.444Z,8.80
2019-01-28T03:10:28.146Z,8.10
2019-01-28T03:12:56.117Z,7.83
2019-01-28T03:15:23.952Z,7.97
2019-01-28T03:17:52.134Z,8.33
2019-01-28T03:20:19.798Z,7.93
2019-01-28T03:22:47.614Z,8.17
2019-01-28T03:25:15.830Z,8.00
2019-01-28T03:27:43.691Z,7.03
2019-01-28T03:30:12.912Z,6.37
2019-01-28T03:32:41.073Z,6.97
2019-01-28T03:35:09.031Z,7.00
2019-01-28T03:37:37.247Z,6.77
2019-01-28T03:40:05.856Z,6.83
2019-01-28T03:42:33.650Z,7.17
2019-01-28T03:45:02.132Z,6.53
2019-01-28T03:47:30.160Z,6.27
2019-01-28T03:49:57.931Z,5.43
2019-01-28T03:52:25.852Z,5.60
2019-01-28T03:54:54.006Z,4.93
2019-01-28T03:57:22.124Z,5.60
2019-01-28T03:59:50.015Z,5.43
2019-01-28T04:02:17.814Z,5.03
2019-01-28T04:04:45.676Z,4.87
2019-01-28T04:07:13.530Z,4.00
2019-01-28T04:09:41.151Z,3.93
2019-01-28T04:12:09.301Z,4.20
2019-01-28T04:14:37.595Z,4.47
2019-01-28T04:17:05.423Z,3.63
2019-01-28T04:19:33.373Z,3.80
2019-01-28T04:22:01.126Z,3.60
2019-01-28T04:24:28.800Z,3.80
2019-01-28T04:26:56.857Z,3.70
2019-01-28T04:29:24.728Z,3.27
2019-01-28T04:31:52.296Z,3.30
2019-01-28T04:34:20.115Z,3.60
2019-01-28T04:36:47.814Z,3.50
2019-01-28T04:39:15.509Z,3.60
2019-01-28T04:41:55.056Z,3.03
2019-01-28T04:44:12.739Z,3.63
2019-01-28T04:46:41.010Z,3.13
2019-01-28T04:49:08.770Z,2.93
2019-01-28T04:51:36.462Z,2.90
2019-01-28T04:54:04.457Z,3.00
2019-01-28T04:56:32.156Z,3.00
2019-01-28T04:59:00.047Z,2.73
2019-01-28T05:01:28.314Z,3.20
2019-01-28T05:03:55.969Z,2.57
2019-01-28T05:06:23.743Z,2.57
2019-01-28T05:08:51.706Z,2.63
2019-01-28T05:11:19.287Z,2.47
2019-01-28T05:13:47.024Z,2.83
2019-01-28T05:16:14.999Z,2.57
2019-01-28T05:18:43.181Z,2.73
2019-01-28T05:21:11.272Z,2.50
2019-01-28T05:23:39.726Z,2.30
2019-01-28T05:26:07.692Z,2.30
2019-01-28T05:28:35.439Z,2.30
2019-01-28T05:31:03.445Z,2.30
2019-01-28T05:33:31.596Z,2.73
2019-01-28T05:35:59.648Z,2.63
2019-01-28T05:38:27.217Z,2.23
2019-01-28T05:40:55.087Z,2.67
2019-01-28T05:43:22.863Z,2.10
2019-01-28T05:45:50.604Z,1.50
2019-01-28T05:48:19.287Z,1.77
2019-01-28T05:50:47.247Z,2.03
2019-01-28T05:53:15.255Z,1.93
2019-01-28T05:55:43.704Z,1.70
2019-01-28T05:58:11.407Z,1.70
2019-01-28T06:00:44.689Z,2.10
2019-01-28T06:03:12.678Z,1.60
2019-01-28T06:05:40.698Z,1.33
2019-01-28T06:08:08.557Z,1.50
2019-01-28T06:10:36.314Z,1.70
2019-01-28T06:13:04.428Z,1.40
2019-01-28T06:15:32.455Z,1.97
2019-01-28T06:18:00.117Z,1.80
2019-01-28T06:20:28.314Z,1.80
2019-01-28T06:22:56.467Z,1.47
2019-01-28T06:25:24.395Z,1.60
2019-01-28T06:27:52.308Z,1.90
2019-01-28T06:30:21.430Z,1.47
2019-01-28T06:32:49.357Z,1.30
2019-01-28T06:35:17.203Z,1.50
2019-01-28T06:37:45.259Z,1.20
2019-01-28T06:40:14.286Z,1.10
2019-01-28T06:42:42.050Z,1.40
2019-01-28T06:45:10.573Z,1.60
2019-01-28T06:47:38.268Z,1.63
2019-01-28T06:50:08.418Z,1.37
2019-01-28T06:52:36.192Z,1.40
2019-01-28T06:55:05.071Z,3.63
2019-01-28T06:57:33.031Z,1.20
2019-01-28T07:00:00.785Z,1.40
2019-01-28T07:02:28.656Z,1.40
2019-01-28T07:04:56.335Z,1.17
2019-01-28T07:07:24.114Z,1.03
2019-01-28T07:09:55.038Z,1.60
2019-01-28T07:12:22.985Z,1.10
2019-01-28T07:14:50.577Z,1.30
2019-01-28T07:17:18.717Z,1.30
2019-01-28T07:19:46.646Z,1.27
2019-01-28T07:22:14.550Z,1.10
2019-01-28T07:24:44.212Z,1.03
2019-01-28T07:27:12.075Z,0.90
2019-01-28T07:29:40.088Z,2.57
2019-01-28T07:32:07.907Z,2.40
2019-01-28T07:34:35.763Z,1.40
2019-01-28T07:37:03.694Z,1.67
2019-01-28T07:39:31.888Z,1.40
2019-01-28T07:42:00.358Z,2.17
2019-01-28T07:44:28.798Z,2.20
2019-01-28T07:46:56.886Z,1.70
2019-01-28T07:49:24.794Z,4.93
2019-01-28T07:51:52.572Z,16.53
2019-01-28T07:54:20.103Z,3.40
2019-01-28T07:56:50.194Z,1.30
2019-01-28T07:59:17.824Z,1.20
2019-01-28T08:01:45.784Z,2.27
2019-01-28T08:04:13.515Z,1.73
2019-01-28T08:06:41.350Z,1.30
2019-01-28T08:09:09.438Z,1.60
2019-01-28T08:11:37.294Z,1.70
2019-01-28T08:14:05.237Z,2.27
2019-01-28T08:16:33.123Z,1.30
2019-01-28T08:19:00.980Z,1.73
2019-01-28T08:21:29.058Z,1.33
2019-01-28T08:23:56.932Z,1.60
2019-01-28T08:26:25.069Z,1.40
2019-01-28T08:28:52.759Z,0.77
2019-01-28T08:31:20.507Z,1.10
2019-01-28T08:33:48.284Z,1.20
2019-01-28T08:36:16.198Z,1.00
2019-01-28T08:38:43.938Z,1.30
2019-01-28T08:41:11.871Z,1.10
2019-01-28T08:43:39.980Z,0.97
2019-01-28T08:46:07.746Z,1.23
2019-01-28T08:48:35.636Z,0.97
2019-01-28T08:51:03.473Z,1.30
2019-01-28T08:53:31.679Z,2.20
2019-01-28T08:55:59.624Z,1.10
2019-01-28T08:58:27.653Z,1.40
2019-01-28T09:00:55.711Z,1.10
2019-01-28T09:03:23.889Z,1.10
2019-01-28T09:05:51.683Z,1.20
2019-01-28T09:08:19.563Z,1.10
2019-01-28T09:10:47.506Z,1.00
2019-01-28T09:13:15.320Z,1.80
2019-01-28T09:15:43.930Z,1.07
2019-01-28T09:18:12.174Z,1.20
2019-01-28T09:20:40.603Z,1.20
2019-01-28T09:23:11.714Z,1.37
2019-01-28T09:25:39.841Z,1.00
2019-01-28T09:28:07.713Z,1.13
2019-01-28T09:30:36.035Z,1.37
2019-01-28T09:33:04.311Z,1.00
2019-01-28T09:35:32.187Z,1.20
2019-01-28T09:38:00.066Z,1.37
2019-01-28T09:40:29.261Z,1.43
2019-01-28T09:42:57.004Z,1.97
2019-01-28T09:45:26.187Z,1.40
2019-01-28T09:47:54.381Z,1.10
2019-01-28T09:50:22.792Z,0.90
2019-01-28T09:52:51.150Z,1.00
2019-01-28T09:55:18.983Z,1.17
2019-01-28T09:57:46.519Z,1.47
2019-01-28T10:00:20.010Z,1.47
2019-01-28T10:02:48.146Z,3.93
2019-01-28T10:05:19.666Z,5.77
2019-01-28T10:07:47.533Z,6.30
2019-01-28T10:10:15.726Z,6.63
2019-01-28T10:12:44.118Z,5.13
2019-01-28T10:15:13.383Z,1.80
2019-01-28T10:17:41.152Z,1.80
2019-01-28T10:20:11.637Z,2.20
2019-01-28T10:22:39.386Z,1.60
2019-01-28T10:25:07.690Z,1.63
2019-01-28T10:27:36.028Z,1.40
2019-01-28T10:30:05.227Z,1.37
2019-01-28T10:32:36.226Z,1.40
2019-01-28T10:35:03.889Z,2.40
2019-01-28T10:37:31.681Z,1.57
2019-01-28T10:40:00.058Z,2.27
2019-01-28T10:42:28.420Z,1.53
2019-01-28T10:44:56.677Z,1.80
2019-01-28T10:47:24.575Z,1.90
2019-01-28T10:49:52.347Z,1.53
2019-01-28T10:52:20.585Z,1.73
2019-01-28T10:54:49.039Z,1.60
2019-01-28T10:57:16.766Z,2.07
2019-01-28T10:59:44.799Z,2.00
2019-01-28T11:02:12.856Z,1.50
2019-01-28T11:04:40.855Z,2.20
2019-01-28T11:07:09.088Z,1.37
2019-01-28T11:09:36.961Z,2.00
2019-01-28T11:12:05.418Z,1.53
2019-01-28T11:14:33.122Z,1.37
2019-01-28T11:17:01.093Z,1.50
2019-01-28T11:19:29.162Z,1.70
2019-01-28T11:21:56.924Z,2.70
2019-01-28T11:24:24.932Z,1.50
2019-01-28T11:26:52.788Z,1.03
2019-01-28T11:29:20.721Z,1.30
2019-01-28T11:31:48.616Z,1.40
2019-01-28T11:34:16.779Z,1.10
2019-01-28T11:36:44.762Z,1.40
2019-01-28T11:39:12.834Z,1.43
2019-01-28T11:41:40.891Z,1.30
2019-01-28T11:44:09.065Z,1.10
2019-01-28T11:46:36.792Z,1.20
2019-01-28T11:49:06.005Z,1.50
2019-01-28T11:51:34.268Z,1.30
2019-01-28T11:54:02.023Z,1.20
2019-01-28T11:56:29.910Z,1.50
2019-01-28T11:58:57.857Z,1.40
2019-01-28T12:01:34.535Z,1.77
2019-01-28T12:04:02.417Z,1.47
2019-01-28T12:06:30.384Z,1.13
2019-01-28T12:08:58.441Z,1.27
2019-01-28T12:11:26.294Z,1.10
2019-01-28T12:13:53.904Z,1.37
2019-01-28T12:16:21.957Z,1.27
2019-01-28T12:18:49.916Z,1.40
2019-01-28T12:21:18.081Z,1.40
2019-01-28T12:23:45.915Z,1.83
2019-01-28T12:26:13.596Z,1.43
2019-01-28T12:28:41.430Z,1.30
2019-01-28T12:31:12.290Z,1.63
2019-01-28T12:33:40.259Z,1.90
2019-01-28T12:36:07.883Z,2.00
2019-01-28T12:38:35.728Z,1.80
2019-01-28T12:41:03.885Z,2.03
2019-01-28T12:43:31.486Z,2.00
2019-01-28T12:45:59.332Z,2.03
2019-01-28T12:48:27.019Z,2.10
2019-01-28T12:50:55.219Z,2.10
2019-01-28T12:53:23.398Z,2.20
2019-01-28T12:55:51.416Z,2.40
2019-01-28T12:58:19.220Z,2.63
2019-01-28T13:00:56.839Z,2.33
2019-01-28T13:03:25.140Z,2.27
2019-01-28T13:05:53.205Z,2.50
2019-01-28T13:08:21.153Z,2.30
2019-01-28T13:10:48.899Z,2.40
2019-01-28T13:13:16.671Z,2.47
2019-01-28T13:15:44.637Z,2.23
2019-01-28T13:18:12.484Z,2.47
2019-01-28T13:20:40.557Z,2.30
2019-01-28T13:23:08.532Z,2.23
2019-01-28T13:25:36.822Z,2.30
2019-01-28T13:28:05.531Z,2.43
2019-01-28T13:30:37.150Z,2.43
2019-01-28T13:33:05.941Z,2.23
2019-01-28T13:35:34.169Z,2.03
2019-01-28T13:38:02.119Z,2.07
2019-01-28T13:40:30.596Z,2.57
2019-01-28T13:42:58.611Z,1.70
2019-01-28T13:45:26.932Z,1.90
2019-01-28T13:47:54.846Z,1.90
2019-01-28T13:50:25.568Z,1.40
2019-01-28T13:52:53.259Z,1.50
2019-01-28T13:55:21.739Z,4.07
2019-01-28T13:57:50.246Z,1.77
2019-01-28T14:00:22.890Z,2.13
2019-01-28T14:02:50.781Z,1.37
2019-01-28T14:05:19.038Z,2.30
2019-01-28T14:07:47.205Z,1.47
2019-01-28T14:10:15.800Z,1.90
2019-01-28T14:12:43.542Z,2.00
2019-01-28T14:15:13.007Z,3.67
2019-01-28T14:17:40.923Z,2.30
2019-01-28T14:20:10.428Z,2.27
2019-01-28T14:22:38.044Z,3.23
2019-01-28T14:25:05.984Z,2.67
2019-01-28T14:27:35.175Z,2.93
2019-01-28T14:30:03.520Z,2.67
2019-01-28T14:32:31.492Z,3.00
2019-01-28T14:34:59.613Z,2.90
2019-01-28T14:37:27.471Z,4.17
2019-01-28T14:39:55.379Z,4.80
2019-01-28T14:42:23.282Z,4.17
2019-01-28T14:44:52.059Z,4.37
2019-01-28T14:47:20.247Z,4.70
2019-01-28T14:49:54.301Z,5.10
2019-01-28T14:52:18.689Z,5.40
2019-01-28T14:54:46.808Z,5.00
2019-01-28T14:57:15.392Z,5.83
2019-01-28T14:59:43.273Z,5.57
2019-01-28T15:02:11.051Z,4.77
2019-01-28T15:04:38.717Z,17.27
2019-01-28T15:07:06.457Z,7.63
2019-01-28T15:09:34.281Z,6.10
2019-01-28T15:12:01.872Z,6.57
2019-01-28T15:14:29.548Z,7.00
2019-01-28T15:16:57.496Z,7.23
2019-01-28T15:19:25.431Z,7.27
2019-01-28T15:21:54.368Z,8.00
2019-01-28T15:24:24.422Z,8.10
2019-01-28T15:26:52.324Z,8.60
2019-01-28T15:29:20.111Z,10.13
2019-01-28T15:31:47.874Z,10.13
2019-01-28T15:34:15.827Z,9.27
2019-01-28T15:36:43.579Z,8.93
2019-01-28T15:39:11.354Z,9.00
2019-01-28T15:41:39.296Z,7.83
2019-01-28T15:44:07.418Z,9.60
2019-01-28T15:46:35.638Z,9.23
2019-01-28T15:49:03.526Z,8.90
2019-01-28T15:51:31.621Z,9.60
2019-01-28T15:53:59.643Z,9.47
2019-01-28T15:56:27.409Z,8.60
2019-01-28T15:58:55.402Z,8.90
2019-01-28T16:01:23.141Z,8.90
2019-01-28T16:03:53.217Z,9.87
2019-01-28T16:06:20.916Z,8.23
2019-01-28T16:08:48.777Z,10.23
2019-01-28T16:11:17.013Z,11.60
2019-01-28T16:13:44.842Z,12.97
2019-01-28T16:16:12.847Z,14.07
2019-01-28T16:18:40.690Z,8.43
2019-01-28T16:21:08.466Z,10.47
2019-01-28T16:23:36.460Z,6.87
2019-01-28T16:26:04.861Z,11.47
2019-01-28T16:28:32.622Z,6.37
2019-01-28T16:31:00.300Z,20.73
2019-01-28T16:33:28.054Z,6.90
2019-01-28T16:35:55.698Z,6.67
2019-01-28T16:38:23.577Z,6.93
2019-01-28T16:40:52.366Z,3.73
2019-01-28T16:43:20.947Z,2.87
2019-01-28T16:45:48.850Z,3.63
2019-01-28T16:48:16.739Z,2.80
2019-01-28T16:50:44.571Z,2.67
2019-01-28T16:53:12.317Z,3.40
2019-01-28T16:55:40.199Z,2.20
2019-01-28T16:58:08.339Z,2.17
2019-01-28T17:00:37.334Z,1.40
2019-01-28T17:03:06.035Z,1.83
2019-01-28T17:05:33.708Z,1.60
2019-01-28T17:08:01.846Z,1.70
2019-01-28T17:10:29.719Z,2.63
2019-01-28T17:12:57.361Z,2.00
2019-01-28T17:15:25.147Z,1.47
2019-01-28T17:17:53.140Z,1.90
2019-01-28T17:20:22.423Z,1.63
2019-01-28T17:22:50.277Z,1.80
2019-01-28T17:25:19.321Z,1.77
2019-01-28T17:27:47.131Z,1.67
2019-01-28T17:30:17.437Z,1.60
2019-01-28T17:32:45.332Z,1.93
2019-01-28T17:35:13.297Z,1.97
2019-01-28T17:37:41.068Z,2.20
2019-01-28T17:40:09.585Z,2.17
2019-01-28T17:42:37.510Z,2.40
2019-01-28T17:45:05.795Z,2.20
2019-01-28T17:47:33.536Z,2.07
2019-01-28T17:50:01.823Z,2.00
2019-01-28T17:52:30.519Z,2.40
2019-01-28T17:54:58.383Z,2.53
2019-01-28T17:57:26.135Z,2.40
2019-01-28T17:59:53.964Z,2.43
2019-01-28T18:02:22.116Z,2.30
2019-01-28T18:04:50.439Z,2.63
2019-01-28T18:07:18.324Z,3.83
2019-01-28T18:09:45.896Z,2.70
2019-01-28T18:12:14.028Z,2.57
2019-01-28T18:14:42.109Z,2.10
2019-01-28T18:17:09.591Z,2.20
2019-01-28T18:19:37.732Z,2.63
2019-01-28T18:22:05.418Z,2.20
2019-01-28T18:24:33.181Z,2.40
2019-01-28T18:27:00.929Z,2.53
2019-01-28T18:29:28.904Z,2.73
2019-01-28T18:31:56.956Z,2.80
2019-01-28T18:34:25.024Z,4.37
2019-01-28T18:36:52.891Z,3.50
2019-01-28T18:39:20.966Z,3.47
2019-01-28T18:41:48.922Z,2.70
2019-01-28T18:44:16.822Z,2.70
2019-01-28T18:46:44.765Z,3.57
2019-01-28T18:49:12.818Z,3.10
2019-01-28T18:51:40.846Z,3.53
2019-01-28T18:54:11.119Z,3.60
2019-01-28T18:56:39.141Z,3.10
2019-01-28T18:59:06.960Z,3.60
2019-01-28T19:01:34.716Z,3.63
2019-01-28T19:04:02.474Z,2.93
2019-01-28T19:06:55.736Z,4.60
2019-01-28T19:09:34.676Z,3.30
2019-01-28T19:12:27.726Z,3.50
2019-01-28T19:15:20.924Z,3.37
2019-01-28T19:18:12.790Z,2.90
2019-01-28T19:21:07.460Z,3.27
2019-01-28T19:23:29.834Z,3.47
2019-01-28T19:25:57.452Z,3.50
2019-01-28T19:28:27.432Z,3.73
2019-01-28T19:30:57.441Z,3.53
2019-01-28T19:33:25.628Z,3.43
2019-01-28T19:35:54.041Z,2.90
2019-01-28T19:38:22.463Z,4.27
2019-01-28T19:40:50.671Z,3.63
2019-01-28T19:43:18.516Z,3.73
2019-01-28T19:45:46.553Z,3.60
2019-01-28T19:48:14.430Z,3.00
2019-01-28T19:50:42.327Z,2.30
2019-01-28T19:53:10.157Z,3.50
2019-01-28T19:55:37.933Z,3.37
2019-01-28T19:58:05.605Z,3.90
2019-01-28T20:00:33.397Z,3.20
2019-01-28T20:03:05.874Z,3.00
2019-01-28T20:05:33.580Z,3.00
2019-01-28T20:08:01.554Z,5.50
2019-01-28T20:10:29.420Z,3.57
2019-01-28T20:12:57.207Z,3.17
2019-01-28T20:15:25.365Z,3.40
2019-01-28T20:17:53.627Z,3.43
2019-01-28T20:20:21.712Z,2.97
2019-01-28T20:22:49.583Z,3.60
2019-01-28T20:25:17.657Z,3.63
2019-01-28T20:27:45.427Z,3.40
2019-01-28T20:30:17.686Z,4.20
2019-01-28T20:32:45.421Z,4.00
2019-01-28T20:35:13.478Z,5.03
2019-01-28T20:37:41.387Z,5.80
2019-01-28T20:40:09.641Z,5.03
2019-01-28T20:42:37.435Z,6.13
2019-01-28T20:45:05.982Z,5.20
2019-01-28T20:47:33.968Z,5.57
2019-01-28T20:50:01.839Z,5.63
2019-01-28T20:52:30.229Z,4.63
2019-01-28T20:54:58.292Z,4.70
2019-01-28T20:57:26.681Z,4.90
2019-01-28T20:59:54.667Z,5.13
2019-01-28T21:02:22.484Z,5.73
2019-01-28T21:04:50.879Z,4.37
2019-01-28T21:07:18.682Z,6.43
2019-01-28T21:09:46.976Z,4.93
2019-01-28T21:12:14.992Z,5.33
2019-01-28T21:14:42.844Z,4.73
2019-01-28T21:17:10.845Z,5.77
2019-01-28T21:19:38.654Z,5.03
2019-01-28T21:22:06.726Z,3.80
2019-01-28T21:24:34.694Z,4.33
2019-01-28T21:27:02.564Z,4.43
2019-01-28T21:29:30.477Z,4.30
2019-01-28T21:31:58.540Z,4.60
2019-01-28T21:34:26.284Z,3.43
2019-01-28T21:37:20.567Z,4.37
2019-01-28T21:39:48.825Z,3.77
2019-01-28T21:42:16.397Z,3.57
2019-01-28T21:44:44.235Z,3.60
2019-01-28T21:47:11.824Z,2.80
2019-01-28T21:49:39.559Z,3.53
2019-01-28T21:52:07.759Z,3.13
2019-01-28T21:54:35.498Z,3.80
2019-01-28T21:57:03.677Z,3.00
2019-01-28T21:59:31.439Z,3.60
2019-01-28T22:01:59.296Z,4.83
2019-01-28T22:04:27.279Z,3.60
2019-01-28T22:06:55.155Z,3.83
2019-01-28T22:09:22.827Z,4.23
2019-01-28T22:11:50.979Z,3.70
2019-01-28T22:14:18.721Z,2.57
2019-01-28T22:16:46.693Z,3.23
2019-01-28T22:19:14.464Z,3.33
2019-01-28T22:21:42.470Z,3.43
2019-01-28T22:24:10.431Z,2.93
2019-01-28T22:26:38.101Z,2.93
2019-01-28T22:29:06.054Z,2.97
2019-01-28T22:31:33.889Z,2.93
2019-01-28T22:34:01.548Z,3.60
2019-01-28T22:36:29.320Z,4.07
2019-01-28T22:38:57.178Z,3.60
2019-01-28T22:41:25.131Z,3.10
2019-01-28T22:43:52.926Z,3.70
2019-01-28T22:46:20.935Z,3.53
2019-01-28T22:48:48.633Z,3.40
2019-01-28T22:51:16.403Z,4.27
2019-01-28T22:53:44.467Z,2.37
2019-01-28T22:56:12.391Z,3.77
2019-01-28T22:58:40.401Z,3.07
2019-01-28T23:01:33.829Z,3.90
2019-01-28T23:04:01.525Z,4.03
2019-01-28T23:06:29.715Z,3.67
2019-01-28T23:08:57.362Z,3.83
2019-01-28T23:11:26.758Z,3.63
2019-01-28T23:13:54.373Z,4.00
2019-01-28T23:16:22.498Z,4.17
2019-01-28T23:18:50.811Z,4.17
2019-01-28T23:21:19.215Z,3.87
2019-01-28T23:23:47.115Z,3.70
2019-01-28T23:26:14.977Z,4.20
2019-01-28T23:28:42.847Z,3.90
2019-01-28T23:31:10.653Z,4.53
2019-01-28T23:33:38.642Z,3.67
2019-01-28T23:36:06.750Z,4.10
2019-01-28T23:38:34.618Z,4.40
2019-01-28T23:41:02.382Z,4.20
2019-01-28T23:43:30.251Z,4.23
2019-01-28T23:45:58.024Z,3.97
2019-01-28T23:48:26.095Z,4.27
2019-01-28T23:50:54.129Z,4.20
2019-01-28T23:53:22.014Z,3.67
2019-01-28T23:55:50.092Z,4.60
2019-01-28T23:58:17.635Z,4.03
